KDMW

Carroll County Regional / Jack B Poage Field Airport

Westminster, Maryland, USA
METAR KDMW 151620Z AUTO 04010G18KT 5SM RA SCT006 OVC021 09/08 A3007 RMK AO2 P0007
Observed Flight Rules
Dec-15 @ 16:20 UTC (41 minutes ago) Marginal Visual Flight Rules
Wind Visibility Clouds Conditions
40° at 10 knots
 Gusting to 18 knots
5 miles
  • Scattered at 600' AGL
  • Overcast at 2,100' AGL
  • Rain
Temperatures Readings Precipitation
Current 9°C / 48°F
Dewpoint 8°C / 46°F
Humidity 94%
Altimeter 30.07" Hg
Pressure 1018 hPa
Elevation 241
Current Rain 0.07
METAR KDMW 151620Z AUTO 04010G18KT 5SM RA SCT006 OVC021 09/08 A3007 RMK AO2 P0007
Observed Flight Rules
Dec-15 @ 16:20 UTC
(41 minutes ago)
MVFR
Wind Visibility
40° at 10 knots
 Gusting to 18 knots
5 miles
Clouds
  • Scattered at 600' AGL
  • Overcast at 2,100' AGL
Conditions
  • Rain
Temperature Dewpoint
9°C / 48°F 8°C / 46°F
Humidity Altimeter Pressure
94% 30.07" Hg 1018 hPa
Current Rain
0.07